sensor_id;sensor_type;location;lat;lon;timestamp;temperature;humidity
21353;DHT22;10834;52.268;6.770;2022-07-29T00:01:38;21.80;58.60
21353;DHT22;10834;52.268;6.770;2022-07-29T00:04:24;21.80;58.60
21353;DHT22;10834;52.268;6.770;2022-07-29T00:07:10;21.70;58.60
21353;DHT22;10834;52.268;6.770;2022-07-29T00:09:57;21.70;58.60
21353;DHT22;10834;52.268;6.770;2022-07-29T00:12:43;21.70;58.60
21353;DHT22;10834;52.268;6.770;2022-07-29T00:15:29;21.70;58.70
21353;DHT22;10834;52.268;6.770;2022-07-29T00:18:15;21.70;58.70
21353;DHT22;10834;52.268;6.770;2022-07-29T00:21:01;21.70;58.80
21353;DHT22;10834;52.268;6.770;2022-07-29T00:23:47;21.70;58.80
21353;DHT22;10834;52.268;6.770;2022-07-29T00:26:33;21.70;58.80
21353;DHT22;10834;52.268;6.770;2022-07-29T00:29:19;21.70;58.90
21353;DHT22;10834;52.268;6.770;2022-07-29T00:32:05;21.70;58.90
21353;DHT22;10834;52.268;6.770;2022-07-29T00:34:52;21.60;58.90
21353;DHT22;10834;52.268;6.770;2022-07-29T00:37:56;21.60;58.90
21353;DHT22;10834;52.268;6.770;2022-07-29T00:40:43;21.60;58.90
21353;DHT22;10834;52.268;6.770;2022-07-29T00:43:30;21.60;59.00
21353;DHT22;10834;52.268;6.770;2022-07-29T00:46:16;21.60;59.00
21353;DHT22;10834;52.268;6.770;2022-07-29T00:49:02;21.60;59.00
21353;DHT22;10834;52.268;6.770;2022-07-29T00:51:49;21.60;59.00
21353;DHT22;10834;52.268;6.770;2022-07-29T00:54:36;21.60;59.00
21353;DHT22;10834;52.268;6.770;2022-07-29T00:57:23;21.60;59.10
21353;DHT22;10834;52.268;6.770;2022-07-29T01:00:12;21.60;59.10
21353;DHT22;10834;52.268;6.770;2022-07-29T01:02:58;21.50;59.00
21353;DHT22;10834;52.268;6.770;2022-07-29T01:05:45;21.60;59.10
21353;DHT22;10834;52.268;6.770;2022-07-29T01:08:32;21.60;59.10
21353;DHT22;10834;52.268;6.770;2022-07-29T01:11:19;21.50;59.10
21353;DHT22;10834;52.268;6.770;2022-07-29T01:14:06;21.50;59.10
21353;DHT22;10834;52.268;6.770;2022-07-29T01:17:00;21.50;59.20
21353;DHT22;10834;52.268;6.770;2022-07-29T01:23:01;21.50;59.20
21353;DHT22;10834;52.268;6.770;2022-07-29T01:26:00;21.50;59.20
21353;DHT22;10834;52.268;6.770;2022-07-29T01:29:22;21.50;59.30
21353;DHT22;10834;52.268;6.770;2022-07-29T01:32:18;21.50;59.30
21353;DHT22;10834;52.268;6.770;2022-07-29T01:35:15;21.50;59.80
21353;DHT22;10834;52.268;6.770;2022-07-29T01:41:10;21.50;59.40
21353;DHT22;10834;52.268;6.770;2022-07-29T01:44:10;21.40;59.30
21353;DHT22;10834;52.268;6.770;2022-07-29T01:47:00;21.40;59.40
21353;DHT22;10834;52.268;6.770;2022-07-29T01:49:52;21.40;59.40
21353;DHT22;10834;52.268;6.770;2022-07-29T01:52:59;21.40;59.40
21353;DHT22;10834;52.268;6.770;2022-07-29T01:55:47;21.40;59.40
21353;DHT22;10834;52.268;6.770;2022-07-29T01:58:35;21.40;59.50
21353;DHT22;10834;52.268;6.770;2022-07-29T02:01:24;21.40;59.50
21353;DHT22;10834;52.268;6.770;2022-07-29T02:04:12;21.40;59.50
21353;DHT22;10834;52.268;6.770;2022-07-29T02:07:05;21.40;59.50
21353;DHT22;10834;52.268;6.770;2022-07-29T02:09:53;21.40;60.10
21353;DHT22;10834;52.268;6.770;2022-07-29T02:12:42;21.40;59.50
21353;DHT22;10834;52.268;6.770;2022-07-29T02:15:32;21.40;59.50
21353;DHT22;10834;52.268;6.770;2022-07-29T02:18:20;21.40;60.20
21353;DHT22;10834;52.268;6.770;2022-07-29T02:21:08;21.40;59.50
21353;DHT22;10834;52.268;6.770;2022-07-29T02:23:57;21.40;59.50
21353;DHT22;10834;52.268;6.770;2022-07-29T02:26:45;21.30;59.50
21353;DHT22;10834;52.268;6.770;2022-07-29T02:29:34;21.30;59.50
21353;DHT22;10834;52.268;6.770;2022-07-29T02:32:22;21.30;59.50
21353;DHT22;10834;52.268;6.770;2022-07-29T02:35:11;21.30;59.50
21353;DHT22;10834;52.268;6.770;2022-07-29T02:37:58;21.30;59.50
21353;DHT22;10834;52.268;6.770;2022-07-29T02:41:12;21.30;59.50
21353;DHT22;10834;52.268;6.770;2022-07-29T02:44:06;21.30;59.50
21353;DHT22;10834;52.268;6.770;2022-07-29T02:47:07;21.30;59.60
21353;DHT22;10834;52.268;6.770;2022-07-29T02:56:16;21.20;59.60
21353;DHT22;10834;52.268;6.770;2022-07-29T02:59:06;21.20;59.60
21353;DHT22;10834;52.268;6.770;2022-07-29T03:01:55;21.20;59.60
21353;DHT22;10834;52.268;6.770;2022-07-29T03:04:44;21.20;60.30
21353;DHT22;10834;52.268;6.770;2022-07-29T03:07:31;21.20;59.60
21353;DHT22;10834;52.268;6.770;2022-07-29T03:10:18;21.20;59.70
21353;DHT22;10834;52.268;6.770;2022-07-29T03:13:05;21.10;59.60
21353;DHT22;10834;52.268;6.770;2022-07-29T03:15:52;21.10;59.70
21353;DHT22;10834;52.268;6.770;2022-07-29T03:18:39;21.10;59.60
21353;DHT22;10834;52.268;6.770;2022-07-29T03:21:25;21.10;59.70
21353;DHT22;10834;52.268;6.770;2022-07-29T03:24:27;21.10;59.70
21353;DHT22;10834;52.268;6.770;2022-07-29T03:27:14;21.10;59.70
21353;DHT22;10834;52.268;6.770;2022-07-29T03:30:00;21.10;59.70
21353;DHT22;10834;52.268;6.770;2022-07-29T03:32:46;21.10;59.80
21353;DHT22;10834;52.268;6.770;2022-07-29T03:35:32;21.00;59.70
21353;DHT22;10834;52.268;6.770;2022-07-29T03:38:18;21.00;60.40
21353;DHT22;10834;52.268;6.770;2022-07-29T03:41:09;21.00;59.80
21353;DHT22;10834;52.268;6.770;2022-07-29T03:43:57;21.00;59.80
21353;DHT22;10834;52.268;6.770;2022-07-29T03:46:45;21.00;59.80
21353;DHT22;10834;52.268;6.770;2022-07-29T03:49:32;21.00;59.90
21353;DHT22;10834;52.268;6.770;2022-07-29T03:52:21;21.00;59.90
21353;DHT22;10834;52.268;6.770;2022-07-29T03:55:08;21.00;59.90
21353;DHT22;10834;52.268;6.770;2022-07-29T03:57:55;21.00;60.00
21353;DHT22;10834;52.268;6.770;2022-07-29T04:00:42;20.90;60.00
21353;DHT22;10834;52.268;6.770;2022-07-29T04:03:29;20.90;60.00
21353;DHT22;10834;52.268;6.770;2022-07-29T04:06:15;20.90;60.00
21353;DHT22;10834;52.268;6.770;2022-07-29T04:09:01;20.90;60.00
21353;DHT22;10834;52.268;6.770;2022-07-29T04:11:47;20.90;60.10
21353;DHT22;10834;52.268;6.770;2022-07-29T04:14:34;20.90;60.10
21353;DHT22;10834;52.268;6.770;2022-07-29T04:17:20;20.90;60.20
21353;DHT22;10834;52.268;6.770;2022-07-29T04:20:07;20.90;60.20
21353;DHT22;10834;52.268;6.770;2022-07-29T04:22:53;20.90;60.20
21353;DHT22;10834;52.268;6.770;2022-07-29T04:25:41;20.90;60.20
21353;DHT22;10834;52.268;6.770;2022-07-29T04:28:28;20.90;60.30
21353;DHT22;10834;52.268;6.770;2022-07-29T04:31:14;20.90;60.40
21353;DHT22;10834;52.268;6.770;2022-07-29T04:34:00;20.90;60.40
21353;DHT22;10834;52.268;6.770;2022-07-29T04:36:46;20.90;61.00
21353;DHT22;10834;52.268;6.770;2022-07-29T04:39:33;20.90;60.40
21353;DHT22;10834;52.268;6.770;2022-07-29T04:42:19;20.80;60.40
21353;DHT22;10834;52.268;6.770;2022-07-29T04:45:05;20.90;60.50
21353;DHT22;10834;52.268;6.770;2022-07-29T04:47:51;20.90;60.50
21353;DHT22;10834;52.268;6.770;2022-07-29T04:50:41;20.80;60.50
21353;DHT22;10834;52.268;6.770;2022-07-29T04:53:27;20.80;60.50
21353;DHT22;10834;52.268;6.770;2022-07-29T04:56:13;20.80;60.50
21353;DHT22;10834;52.268;6.770;2022-07-29T04:58:59;20.80;60.50
21353;DHT22;10834;52.268;6.770;2022-07-29T05:01:44;20.80;60.50
21353;DHT22;10834;52.268;6.770;2022-07-29T05:04:31;20.80;60.50
21353;DHT22;10834;52.268;6.770;2022-07-29T05:07:17;20.80;60.60
21353;DHT22;10834;52.268;6.770;2022-07-29T05:10:03;20.80;60.50
21353;DHT22;10834;52.268;6.770;2022-07-29T05:12:49;20.80;60.60
21353;DHT22;10834;52.268;6.770;2022-07-29T05:15:37;20.80;60.50
21353;DHT22;10834;52.268;6.770;2022-07-29T05:18:24;20.80;60.50
21353;DHT22;10834;52.268;6.770;2022-07-29T05:21:10;20.80;60.50
21353;DHT22;10834;52.268;6.770;2022-07-29T05:23:57;20.80;60.60
21353;DHT22;10834;52.268;6.770;2022-07-29T05:26:43;20.70;60.50
21353;DHT22;10834;52.268;6.770;2022-07-29T05:29:29;20.80;60.60
21353;DHT22;10834;52.268;6.770;2022-07-29T05:32:15;20.70;60.50
21353;DHT22;10834;52.268;6.770;2022-07-29T05:35:01;20.70;60.50
21353;DHT22;10834;52.268;6.770;2022-07-29T05:37:47;20.80;60.70
21353;DHT22;10834;52.268;6.770;2022-07-29T05:40:33;20.70;60.60
21353;DHT22;10834;52.268;6.770;2022-07-29T05:43:19;20.70;60.60
21353;DHT22;10834;52.268;6.770;2022-07-29T05:46:06;20.70;60.70
21353;DHT22;10834;52.268;6.770;2022-07-29T05:48:53;20.70;60.70
21353;DHT22;10834;52.268;6.770;2022-07-29T05:51:39;20.70;60.60
21353;DHT22;10834;52.268;6.770;2022-07-29T05:54:25;20.70;60.70
21353;DHT22;10834;52.268;6.770;2022-07-29T05:57:16;20.70;60.70
21353;DHT22;10834;52.268;6.770;2022-07-29T06:00:03;20.70;60.70
21353;DHT22;10834;52.268;6.770;2022-07-29T06:02:49;20.70;60.70
21353;DHT22;10834;52.268;6.770;2022-07-29T06:05:35;20.70;60.70
21353;DHT22;10834;52.268;6.770;2022-07-29T06:08:21;20.60;61.30
21353;DHT22;10834;52.268;6.770;2022-07-29T06:11:07;20.60;60.70
21353;DHT22;10834;52.268;6.770;2022-07-29T06:13:54;20.60;60.70
21353;DHT22;10834;52.268;6.770;2022-07-29T06:16:40;20.70;61.50
21353;DHT22;10834;52.268;6.770;2022-07-29T06:19:26;20.60;60.70
21353;DHT22;10834;52.268;6.770;2022-07-29T06:22:15;20.60;60.80
21353;DHT22;10834;52.268;6.770;2022-07-29T06:25:02;20.60;60.80
21353;DHT22;10834;52.268;6.770;2022-07-29T06:27:49;20.60;60.80
21353;DHT22;10834;52.268;6.770;2022-07-29T06:30:35;20.60;60.80
21353;DHT22;10834;52.268;6.770;2022-07-29T06:33:21;20.60;60.80
21353;DHT22;10834;52.268;6.770;2022-07-29T06:36:07;20.60;60.90
21353;DHT22;10834;52.268;6.770;2022-07-29T06:38:53;20.60;61.00
21353;DHT22;10834;52.268;6.770;2022-07-29T06:41:39;20.60;61.00
21353;DHT22;10834;52.268;6.770;2022-07-29T06:44:25;20.70;61.10
21353;DHT22;10834;52.268;6.770;2022-07-29T06:47:11;20.60;61.00
21353;DHT22;10834;52.268;6.770;2022-07-29T06:49:58;20.60;61.00
21353;DHT22;10834;52.268;6.770;2022-07-29T06:52:44;20.60;61.10
21353;DHT22;10834;52.268;6.770;2022-07-29T06:55:30;20.60;61.10
21353;DHT22;10834;52.268;6.770;2022-07-29T06:58:16;20.60;61.20
21353;DHT22;10834;52.268;6.770;2022-07-29T07:01:05;20.60;61.20
21353;DHT22;10834;52.268;6.770;2022-07-29T07:03:51;20.60;61.20
21353;DHT22;10834;52.268;6.770;2022-07-29T07:06:37;20.60;61.20
21353;DHT22;10834;52.268;6.770;2022-07-29T07:09:23;20.60;61.30
21353;DHT22;10834;52.268;6.770;2022-07-29T07:12:09;20.60;61.40
21353;DHT22;10834;52.268;6.770;2022-07-29T07:14:56;20.60;61.50
21353;DHT22;10834;52.268;6.770;2022-07-29T07:17:42;20.50;61.60
21353;DHT22;10834;52.268;6.770;2022-07-29T07:20:28;20.50;61.80
21353;DHT22;10834;52.268;6.770;2022-07-29T07:23:14;20.50;62.10
21353;DHT22;10834;52.268;6.770;2022-07-29T07:26:00;20.50;62.30
21353;DHT22;10834;52.268;6.770;2022-07-29T07:28:46;20.50;62.40
21353;DHT22;10834;52.268;6.770;2022-07-29T07:31:32;20.50;62.60
21353;DHT22;10834;52.268;6.770;2022-07-29T07:34:18;20.50;62.70
21353;DHT22;10834;52.268;6.770;2022-07-29T07:37:05;20.50;62.90
21353;DHT22;10834;52.268;6.770;2022-07-29T07:39:52;20.50;63.00
21353;DHT22;10834;52.268;6.770;2022-07-29T07:42:39;20.50;63.10
21353;DHT22;10834;52.268;6.770;2022-07-29T07:45:26;20.50;63.30
21353;DHT22;10834;52.268;6.770;2022-07-29T07:48:12;20.50;63.40
21353;DHT22;10834;52.268;6.770;2022-07-29T07:50:58;20.50;63.40
21353;DHT22;10834;52.268;6.770;2022-07-29T07:53:44;20.50;63.60
21353;DHT22;10834;52.268;6.770;2022-07-29T07:56:31;20.50;63.60
21353;DHT22;10834;52.268;6.770;2022-07-29T07:59:17;20.40;63.60
21353;DHT22;10834;52.268;6.770;2022-07-29T08:02:03;20.50;63.70
21353;DHT22;10834;52.268;6.770;2022-07-29T08:04:50;20.40;63.90
21353;DHT22;10834;52.268;6.770;2022-07-29T08:07:36;20.40;63.90
21353;DHT22;10834;52.268;6.770;2022-07-29T08:10:22;20.40;63.90
21353;DHT22;10834;52.268;6.770;2022-07-29T08:13:27;20.40;64.00
21353;DHT22;10834;52.268;6.770;2022-07-29T08:16:13;20.40;64.00
21353;DHT22;10834;52.268;6.770;2022-07-29T08:19:00;20.40;64.20
21353;DHT22;10834;52.268;6.770;2022-07-29T08:21:46;20.40;64.20
21353;DHT22;10834;52.268;6.770;2022-07-29T08:24:33;20.40;64.40
21353;DHT22;10834;52.268;6.770;2022-07-29T08:27:28;20.40;64.50
21353;DHT22;10834;52.268;6.770;2022-07-29T08:30:16;20.40;64.60
21353;DHT22;10834;52.268;6.770;2022-07-29T08:33:02;20.40;64.80
21353;DHT22;10834;52.268;6.770;2022-07-29T08:35:48;20.40;65.00
21353;DHT22;10834;52.268;6.770;2022-07-29T08:38:36;20.40;65.20
21353;DHT22;10834;52.268;6.770;2022-07-29T08:41:22;20.40;65.20
21353;DHT22;10834;52.268;6.770;2022-07-29T08:44:09;20.30;65.30
21353;DHT22;10834;52.268;6.770;2022-07-29T08:46:55;20.30;65.40
21353;DHT22;10834;52.268;6.770;2022-07-29T08:49:41;20.30;65.50
21353;DHT22;10834;52.268;6.770;2022-07-29T08:52:28;20.30;65.60
21353;DHT22;10834;52.268;6.770;2022-07-29T08:55:17;20.30;65.80
21353;DHT22;10834;52.268;6.770;2022-07-29T08:58:04;20.30;65.90
21353;DHT22;10834;52.268;6.770;2022-07-29T09:00:53;20.30;66.00
21353;DHT22;10834;52.268;6.770;2022-07-29T09:03:40;20.40;66.10
21353;DHT22;10834;52.268;6.770;2022-07-29T09:06:30;20.30;66.20
21353;DHT22;10834;52.268;6.770;2022-07-29T09:09:19;20.30;66.30
21353;DHT22;10834;52.268;6.770;2022-07-29T09:12:05;20.30;66.40
21353;DHT22;10834;52.268;6.770;2022-07-29T09:14:53;20.30;66.50
21353;DHT22;10834;52.268;6.770;2022-07-29T09:20:26;20.30;66.80
21353;DHT22;10834;52.268;6.770;2022-07-29T09:23:32;20.30;66.90
21353;DHT22;10834;52.268;6.770;2022-07-29T09:26:18;20.30;66.90
21353;DHT22;10834;52.268;6.770;2022-07-29T09:29:15;20.30;67.70
21353;DHT22;10834;52.268;6.770;2022-07-29T09:32:06;20.30;67.10
21353;DHT22;10834;52.268;6.770;2022-07-29T09:38:12;20.30;67.20
21353;DHT22;10834;52.268;6.770;2022-07-29T09:41:03;20.30;67.30
21353;DHT22;10834;52.268;6.770;2022-07-29T09:43:59;20.30;67.40
21353;DHT22;10834;52.268;6.770;2022-07-29T09:46:55;20.30;67.50
21353;DHT22;10834;52.268;6.770;2022-07-29T09:49:57;20.30;67.70
21353;DHT22;10834;52.268;6.770;2022-07-29T09:52:48;20.30;67.70
21353;DHT22;10834;52.268;6.770;2022-07-29T09:55:46;20.30;67.70
21353;DHT22;10834;52.268;6.770;2022-07-29T09:58:33;20.30;67.90
21353;DHT22;10834;52.268;6.770;2022-07-29T10:01:27;20.30;67.90
21353;DHT22;10834;52.268;6.770;2022-07-29T10:04:14;20.20;67.90
21353;DHT22;10834;52.268;6.770;2022-07-29T10:07:02;20.30;68.00
21353;DHT22;10834;52.268;6.770;2022-07-29T10:09:56;20.20;68.10
21353;DHT22;10834;52.268;6.770;2022-07-29T10:15:42;20.20;68.20
21353;DHT22;10834;52.268;6.770;2022-07-29T10:18:30;20.20;68.40
21353;DHT22;10834;52.268;6.770;2022-07-29T10:21:16;20.30;68.50
21353;DHT22;10834;52.268;6.770;2022-07-29T10:24:04;20.20;68.50
21353;DHT22;10834;52.268;6.770;2022-07-29T10:26:50;20.30;68.70
21353;DHT22;10834;52.268;6.770;2022-07-29T10:29:37;20.30;68.80
21353;DHT22;10834;52.268;6.770;2022-07-29T10:32:39;20.20;68.80
21353;DHT22;10834;52.268;6.770;2022-07-29T10:41:43;20.30;69.10
21353;DHT22;10834;52.268;6.770;2022-07-29T10:44:34;20.30;69.20
21353;DHT22;10834;52.268;6.770;2022-07-29T10:47:25;20.30;69.30
21353;DHT22;10834;52.268;6.770;2022-07-29T10:50:11;20.20;69.30
21353;DHT22;10834;52.268;6.770;2022-07-29T10:52:58;20.30;69.50
21353;DHT22;10834;52.268;6.770;2022-07-29T10:55:44;20.30;69.50
21353;DHT22;10834;52.268;6.770;2022-07-29T10:58:34;20.30;69.60
21353;DHT22;10834;52.268;6.770;2022-07-29T11:01:30;20.30;69.70
21353;DHT22;10834;52.268;6.770;2022-07-29T11:07:32;20.30;70.60
21353;DHT22;10834;52.268;6.770;2022-07-29T11:10:23;20.30;70.10
21353;DHT22;10834;52.268;6.770;2022-07-29T11:13:09;20.30;70.30
21353;DHT22;10834;52.268;6.770;2022-07-29T11:15:56;20.30;70.60
21353;DHT22;10834;52.268;6.770;2022-07-29T11:21:57;20.30;70.90
21353;DHT22;10834;52.268;6.770;2022-07-29T11:24:43;20.40;71.10
21353;DHT22;10834;52.268;6.770;2022-07-29T11:27:32;20.30;70.90
21353;DHT22;10834;52.268;6.770;2022-07-29T11:30:51;20.30;70.80
21353;DHT22;10834;52.268;6.770;2022-07-29T11:33:38;20.30;70.80
21353;DHT22;10834;52.268;6.770;2022-07-29T11:36:25;20.30;70.60
21353;DHT22;10834;52.268;6.770;2022-07-29T11:39:29;20.30;70.40
21353;DHT22;10834;52.268;6.770;2022-07-29T11:45:16;20.40;70.40
21353;DHT22;10834;52.268;6.770;2022-07-29T11:48:03;20.40;70.30
21353;DHT22;10834;52.268;6.770;2022-07-29T11:50:51;20.40;70.30
21353;DHT22;10834;52.268;6.770;2022-07-29T11:53:39;20.40;70.90
21353;DHT22;10834;52.268;6.770;2022-07-29T11:56:26;20.50;70.20
21353;DHT22;10834;52.268;6.770;2022-07-29T11:59:15;20.50;70.10
21353;DHT22;10834;52.268;6.770;2022-07-29T12:02:02;20.50;70.10
21353;DHT22;10834;52.268;6.770;2022-07-29T12:04:55;20.50;70.10
21353;DHT22;10834;52.268;6.770;2022-07-29T12:07:42;20.50;70.10
21353;DHT22;10834;52.268;6.770;2022-07-29T12:10:30;20.50;70.00
21353;DHT22;10834;52.268;6.770;2022-07-29T12:13:19;20.50;70.00
21353;DHT22;10834;52.268;6.770;2022-07-29T12:16:05;20.60;70.00
21353;DHT22;10834;52.268;6.770;2022-07-29T12:18:59;20.60;70.00
21353;DHT22;10834;52.268;6.770;2022-07-29T12:21:46;20.60;69.90
21353;DHT22;10834;52.268;6.770;2022-07-29T12:24:45;20.60;69.90
21353;DHT22;10834;52.268;6.770;2022-07-29T12:27:31;20.70;70.00
21353;DHT22;10834;52.268;6.770;2022-07-29T12:30:18;20.70;69.90
21353;DHT22;10834;52.268;6.770;2022-07-29T12:33:15;20.70;69.80
21353;DHT22;10834;52.268;6.770;2022-07-29T12:36:02;20.70;69.80
21353;DHT22;10834;52.268;6.770;2022-07-29T12:38:49;20.80;69.80
21353;DHT22;10834;52.268;6.770;2022-07-29T12:41:35;20.80;69.80
21353;DHT22;10834;52.268;6.770;2022-07-29T12:44:21;20.80;70.40
21353;DHT22;10834;52.268;6.770;2022-07-29T12:47:07;20.80;69.70
21353;DHT22;10834;52.268;6.770;2022-07-29T12:50:11;20.80;69.70
21353;DHT22;10834;52.268;6.770;2022-07-29T12:53:18;20.90;69.90
21353;DHT22;10834;52.268;6.770;2022-07-29T12:56:05;20.90;69.90
21353;DHT22;10834;52.268;6.770;2022-07-29T12:58:51;21.00;69.90
21353;DHT22;10834;52.268;6.770;2022-07-29T13:01:37;21.00;69.80
21353;DHT22;10834;52.268;6.770;2022-07-29T13:04:30;21.00;69.60
21353;DHT22;10834;52.268;6.770;2022-07-29T13:07:24;21.00;69.60
21353;DHT22;10834;52.268;6.770;2022-07-29T13:16:06;21.10;69.30
21353;DHT22;10834;52.268;6.770;2022-07-29T13:19:06;21.20;69.30
21353;DHT22;10834;52.268;6.770;2022-07-29T13:21:53;21.10;69.20
21353;DHT22;10834;52.268;6.770;2022-07-29T13:27:36;21.20;69.20
21353;DHT22;10834;52.268;6.770;2022-07-29T13:30:23;21.20;69.10
21353;DHT22;10834;52.268;6.770;2022-07-29T13:33:09;21.20;69.00
21353;DHT22;10834;52.268;6.770;2022-07-29T13:35:55;21.20;68.80
21353;DHT22;10834;52.268;6.770;2022-07-29T13:38:41;21.30;68.80
21353;DHT22;10834;52.268;6.770;2022-07-29T13:41:27;21.30;68.70
21353;DHT22;10834;52.268;6.770;2022-07-29T13:44:14;21.30;68.70
21353;DHT22;10834;52.268;6.770;2022-07-29T13:47:00;21.30;68.60
21353;DHT22;10834;52.268;6.770;2022-07-29T13:49:46;21.30;68.50
21353;DHT22;10834;52.268;6.770;2022-07-29T13:52:33;21.30;68.50
21353;DHT22;10834;52.268;6.770;2022-07-29T13:55:19;21.40;68.50
21353;DHT22;10834;52.268;6.770;2022-07-29T13:58:05;21.40;68.40
21353;DHT22;10834;52.268;6.770;2022-07-29T14:00:51;21.40;68.40
21353;DHT22;10834;52.268;6.770;2022-07-29T14:03:37;21.40;68.20
21353;DHT22;10834;52.268;6.770;2022-07-29T14:06:27;21.40;68.20
21353;DHT22;10834;52.268;6.770;2022-07-29T14:09:13;21.40;68.10
21353;DHT22;10834;52.268;6.770;2022-07-29T14:11:59;21.40;68.00
21353;DHT22;10834;52.268;6.770;2022-07-29T14:14:45;21.50;68.00
21353;DHT22;10834;52.268;6.770;2022-07-29T14:17:31;21.50;68.00
21353;DHT22;10834;52.268;6.770;2022-07-29T14:20:17;21.50;67.90
21353;DHT22;10834;52.268;6.770;2022-07-29T14:23:03;21.50;67.80
21353;DHT22;10834;52.268;6.770;2022-07-29T14:25:49;21.50;67.70
21353;DHT22;10834;52.268;6.770;2022-07-29T14:28:35;21.50;67.70
21353;DHT22;10834;52.268;6.770;2022-07-29T14:31:21;21.50;67.60
21353;DHT22;10834;52.268;6.770;2022-07-29T14:34:07;21.50;67.50
21353;DHT22;10834;52.268;6.770;2022-07-29T14:36:53;21.60;67.60
21353;DHT22;10834;52.268;6.770;2022-07-29T14:39:42;21.60;67.60
21353;DHT22;10834;52.268;6.770;2022-07-29T14:42:29;21.60;67.40
21353;DHT22;10834;52.268;6.770;2022-07-29T14:45:16;21.60;67.40
21353;DHT22;10834;52.268;6.770;2022-07-29T14:48:02;21.60;67.40
21353;DHT22;10834;52.268;6.770;2022-07-29T14:50:48;21.60;67.40
21353;DHT22;10834;52.268;6.770;2022-07-29T14:53:34;21.60;67.50
21353;DHT22;10834;52.268;6.770;2022-07-29T14:56:20;21.60;67.60
21353;DHT22;10834;52.268;6.770;2022-07-29T14:59:06;21.60;67.60
21353;DHT22;10834;52.268;6.770;2022-07-29T15:01:52;21.70;67.90
21353;DHT22;10834;52.268;6.770;2022-07-29T15:04:38;21.70;67.90
21353;DHT22;10834;52.268;6.770;2022-07-29T15:07:24;21.70;68.00
21353;DHT22;10834;52.268;6.770;2022-07-29T15:10:10;21.70;67.90
21353;DHT22;10834;52.268;6.770;2022-07-29T15:12:56;21.60;67.70
21353;DHT22;10834;52.268;6.770;2022-07-29T15:15:42;21.70;67.60
21353;DHT22;10834;52.268;6.770;2022-07-29T15:18:30;21.70;67.60
21353;DHT22;10834;52.268;6.770;2022-07-29T15:21:16;21.70;67.50
21353;DHT22;10834;52.268;6.770;2022-07-29T15:24:02;21.70;67.40
21353;DHT22;10834;52.268;6.770;2022-07-29T15:26:48;21.70;67.40
21353;DHT22;10834;52.268;6.770;2022-07-29T15:29:34;21.70;67.50
21353;DHT22;10834;52.268;6.770;2022-07-29T15:32:21;21.70;67.60
21353;DHT22;10834;52.268;6.770;2022-07-29T15:35:07;21.70;67.70
21353;DHT22;10834;52.268;6.770;2022-07-29T15:37:53;21.70;67.70
21353;DHT22;10834;52.268;6.770;2022-07-29T15:40:39;21.70;67.70
21353;DHT22;10834;52.268;6.770;2022-07-29T15:43:26;21.70;67.70
21353;DHT22;10834;52.268;6.770;2022-07-29T15:46:13;21.70;67.60
21353;DHT22;10834;52.268;6.770;2022-07-29T15:49:18;21.70;67.60
21353;DHT22;10834;52.268;6.770;2022-07-29T15:52:06;21.70;67.50
21353;DHT22;10834;52.268;6.770;2022-07-29T15:54:56;21.70;67.60
21353;DHT22;10834;52.268;6.770;2022-07-29T15:57:42;21.70;67.60
21353;DHT22;10834;52.268;6.770;2022-07-29T16:00:28;21.70;67.60
21353;DHT22;10834;52.268;6.770;2022-07-29T16:03:14;21.70;67.50
21353;DHT22;10834;52.268;6.770;2022-07-29T16:06:01;21.70;67.30
21353;DHT22;10834;52.268;6.770;2022-07-29T16:08:47;21.70;67.20
21353;DHT22;10834;52.268;6.770;2022-07-29T16:11:33;21.70;67.20
21353;DHT22;10834;52.268;6.770;2022-07-29T16:14:19;21.70;67.10
21353;DHT22;10834;52.268;6.770;2022-07-29T16:17:05;21.70;67.10
21353;DHT22;10834;52.268;6.770;2022-07-29T16:19:51;21.70;67.10
21353;DHT22;10834;52.268;6.770;2022-07-29T16:22:38;21.70;67.10
21353;DHT22;10834;52.268;6.770;2022-07-29T16:25:24;21.70;67.10
21353;DHT22;10834;52.268;6.770;2022-07-29T16:28:10;21.70;67.00
21353;DHT22;10834;52.268;6.770;2022-07-29T16:30:56;21.70;67.00
21353;DHT22;10834;52.268;6.770;2022-07-29T16:33:42;21.70;67.10
21353;DHT22;10834;52.268;6.770;2022-07-29T16:36:28;21.70;67.00
21353;DHT22;10834;52.268;6.770;2022-07-29T16:39:14;21.70;66.90
21353;DHT22;10834;52.268;6.770;2022-07-29T16:42:00;21.70;66.90
21353;DHT22;10834;52.268;6.770;2022-07-29T16:44:46;21.70;66.80
21353;DHT22;10834;52.268;6.770;2022-07-29T16:47:32;21.70;66.80
21353;DHT22;10834;52.268;6.770;2022-07-29T16:50:18;21.70;66.70
21353;DHT22;10834;52.268;6.770;2022-07-29T16:53:04;21.70;66.60
21353;DHT22;10834;52.268;6.770;2022-07-29T16:55:50;21.70;66.60
21353;DHT22;10834;52.268;6.770;2022-07-29T16:58:36;21.70;66.60
21353;DHT22;10834;52.268;6.770;2022-07-29T17:01:23;21.70;66.50
21353;DHT22;10834;52.268;6.770;2022-07-29T17:04:08;21.70;66.60
21353;DHT22;10834;52.268;6.770;2022-07-29T17:06:57;21.70;66.50
21353;DHT22;10834;52.268;6.770;2022-07-29T17:09:43;21.70;66.40
21353;DHT22;10834;52.268;6.770;2022-07-29T17:12:29;21.60;67.20
21353;DHT22;10834;52.268;6.770;2022-07-29T17:15:16;21.60;66.80
21353;DHT22;10834;52.268;6.770;2022-07-29T17:18:03;21.70;66.80
21353;DHT22;10834;52.268;6.770;2022-07-29T17:20:49;21.60;66.80
21353;DHT22;10834;52.268;6.770;2022-07-29T17:23:35;21.60;67.10
21353;DHT22;10834;52.268;6.770;2022-07-29T17:26:21;21.70;67.10
21353;DHT22;10834;52.268;6.770;2022-07-29T17:29:08;21.60;67.10
21353;DHT22;10834;52.268;6.770;2022-07-29T17:31:54;21.60;67.40
21353;DHT22;10834;52.268;6.770;2022-07-29T17:34:41;21.60;67.60
21353;DHT22;10834;52.268;6.770;2022-07-29T17:37:27;21.60;67.90
21353;DHT22;10834;52.268;6.770;2022-07-29T17:40:13;21.60;68.00
21353;DHT22;10834;52.268;6.770;2022-07-29T17:42:59;21.60;68.20
21353;DHT22;10834;52.268;6.770;2022-07-29T17:45:45;21.60;68.20
21353;DHT22;10834;52.268;6.770;2022-07-29T17:48:31;21.60;68.20
21353;DHT22;10834;52.268;6.770;2022-07-29T17:51:17;21.60;68.90
21353;DHT22;10834;52.268;6.770;2022-07-29T17:54:04;21.60;68.20
21353;DHT22;10834;52.268;6.770;2022-07-29T17:56:50;21.60;68.20
21353;DHT22;10834;52.268;6.770;2022-07-29T17:59:36;21.60;68.20
21353;DHT22;10834;52.268;6.770;2022-07-29T18:02:22;21.60;68.20
21353;DHT22;10834;52.268;6.770;2022-07-29T18:05:08;21.60;68.20
21353;DHT22;10834;52.268;6.770;2022-07-29T18:07:54;21.60;68.20
21353;DHT22;10834;52.268;6.770;2022-07-29T18:10:40;21.60;68.10
21353;DHT22;10834;52.268;6.770;2022-07-29T18:13:26;21.60;68.80
21353;DHT22;10834;52.268;6.770;2022-07-29T18:16:13;21.60;68.10
21353;DHT22;10834;52.268;6.770;2022-07-29T18:18:59;21.60;68.10
21353;DHT22;10834;52.268;6.770;2022-07-29T18:21:45;21.50;68.00
21353;DHT22;10834;52.268;6.770;2022-07-29T18:24:31;21.50;68.00
21353;DHT22;10834;52.268;6.770;2022-07-29T18:27:18;21.50;68.00